Terminal Aerodrome Forecast
Issued by NWS

Home | Current Version | Previous Version | Text Only | Print | Product List | Glossary On
Versions: 1 2 3 4 5 6 7 8 9 10 11 12 13 14 15
000
FTUS46 KLOX 052347
TAFWJF
TAF
KWJF 052347Z 0600/0624 24017G25KT P6SM SKC
     FM060200 25014KT P6SM SKC
     FM060500 24008KT P6SM SKC
     FM061000 VRB05KT P6SM SKC
     FM061500 24012KT P6SM SKC
     FM061800 24014G22KT P6SM SKC
     FM062100 23020G30KT P6SM SKC=

USA.gov is the U.S. government's official web portal to all federal, state and local government web resources and services.